Aviation Digital Data Service (ADDS)

Output produced by METARs form (0858 UTC 18 February 2019)
found at http://www.aviationweather.gov/metar/data/
 
METAR text: KHSV 180853Z AUTO 01011KT 10SM OVC016 06/03 A3007 RMK AO2 SLP182 60002 T00610033 51023
Conditions at: KHSV (HUNTSVILLE , AL, US) observed 0853 UTC 18 February 2019
Temperature: 6.1°C (43°F)
Dewpoint: 3.3°C (38°F) [RH = 82%]
Pressure (altimeter): 30.07 inches Hg (1018.4 mb)
[Sea-level pressure: 1018.2 mb]
Winds: from the N (10 degrees) at 13 MPH (11 knots; 5.7 m/s)
Visibility: 10 or more miles (16+ km)
Ceiling: 1600 feet AGL
Clouds: overcast cloud deck at 1600 feet AGL
Weather: automated observation with no human augmentation;
there may or may not be significant weather present at this time

METAR text: KHSV 180844Z AUTO 34007KT 10SM OVC016 06/04 A3007 RMK AO2 T00610044
Conditions at: KHSV (HUNTSVILLE , AL, US) observed 0844 UTC 18 February 2019
Temperature: 6.1°C (43°F)
Dewpoint: 4.4°C (40°F) [RH = 89%]
Pressure (altimeter): 30.07 inches Hg (1018.4 mb)
Winds: from the NNW (340 degrees) at 8 MPH (7 knots; 3.6 m/s)
Visibility: 10 or more miles (16+ km)
Ceiling: 1600 feet AGL
Clouds: overcast cloud deck at 1600 feet AGL
Weather: automated observation with no human augmentation;
there may or may not be significant weather present at this time

METAR text: KHSV 180826Z AUTO 32006KT 10SM OVC014 06/04 A3006 RMK AO2 T00610044
Conditions at: KHSV (HUNTSVILLE , AL, US) observed 0826 UTC 18 February 2019
Temperature: 6.1°C (43°F)
Dewpoint: 4.4°C (40°F) [RH = 89%]
Pressure (altimeter): 30.06 inches Hg (1018.0 mb)
Winds: from the NW (320 degrees) at 7 MPH (6 knots; 3.1 m/s)
Visibility: 10 or more miles (16+ km)
Ceiling: 1400 feet AGL
Clouds: overcast cloud deck at 1400 feet AGL
Weather: automated observation with no human augmentation;
there may or may not be significant weather present at this time

METAR text: KHSV 180753Z AUTO 31008KT 10SM OVC018 06/05 A3007 RMK AO2 SLP181 T00610050
Conditions at: KHSV (HUNTSVILLE , AL, US) observed 0753 UTC 18 February 2019
Temperature: 6.1°C (43°F)
Dewpoint: 5.0°C (41°F) [RH = 93%]
Pressure (altimeter): 30.07 inches Hg (1018.4 mb)
[Sea-level pressure: 1018.1 mb]
Winds: from the NW (310 degrees) at 9 MPH (8 knots; 4.1 m/s)
Visibility: 10 or more miles (16+ km)
Ceiling: 1800 feet AGL
Clouds: overcast cloud deck at 1800 feet AGL
Weather: automated observation with no human augmentation;
there may or may not be significant weather present at this time

METAR text: KHSV 180712Z AUTO 30006KT 10SM BKN025 BKN120 07/04 A3006 RMK AO2 T00670044
Conditions at: KHSV (HUNTSVILLE , AL, US) observed 0712 UTC 18 February 2019
Temperature: 6.7°C (44°F)
Dewpoint: 4.4°C (40°F) [RH = 85%]
Pressure (altimeter): 30.06 inches Hg (1018.0 mb)
Winds: from the WNW (300 degrees) at 7 MPH (6 knots; 3.1 m/s)
Visibility: 10 or more miles (16+ km)
Ceiling: 2500 feet AGL
Clouds: broken clouds at 2500 feet AGL
broken clouds at 12000 feet AGL
Weather: automated observation with no human augmentation;
there may or may not be significant weather present at this time

METAR text: KHSV 180705Z AUTO 29008KT 10SM SCT025 BKN120 06/04 A3007 RMK AO2 PRESRR T00610044
Conditions at: KHSV (HUNTSVILLE , AL, US) observed 0705 UTC 18 February 2019
Temperature: 6.1°C (43°F)
Dewpoint: 4.4°C (40°F) [RH = 89%]
Pressure (altimeter): 30.07 inches Hg (1018.4 mb)
Winds: from the WNW (290 degrees) at 9 MPH (8 knots; 4.1 m/s)
Visibility: 10 or more miles (16+ km)
Ceiling: 12000 feet AGL
Clouds: scattered clouds at 2500 feet AGL
broken clouds at 12000 feet AGL
Weather: automated observation with no human augmentation;
there may or may not be significant weather present at this time

METAR text: KHSV 180653Z AUTO 31008KT 10SM FEW010 BKN023 BKN120 07/05 A3004 RMK AO2 RAE18 SLP170 P0002 T00670050
Conditions at: KHSV (HUNTSVILLE , AL, US) observed 0653 UTC 18 February 2019
Temperature: 6.7°C (44°F)
Dewpoint: 5.0°C (41°F) [RH = 89%]
Pressure (altimeter): 30.04 inches Hg (1017.4 mb)
[Sea-level pressure: 1017.0 mb]
Winds: from the NW (310 degrees) at 9 MPH (8 knots; 4.1 m/s)
Visibility: 10 or more miles (16+ km)
Ceiling: 2300 feet AGL
Clouds: few clouds at 1000 feet AGL
broken clouds at 2300 feet AGL
broken clouds at 12000 feet AGL
Weather: automated observation with no human augmentation;
there may or may not be significant weather present at this time

METAR text: KHSV 180614Z AUTO 31008KT 10SM -RA OVC010 07/06 A3003 RMK AO2 CIG 007V012 PRESRR P0002 T00720056
Conditions at: KHSV (HUNTSVILLE , AL, US) observed 0614 UTC 18 February 2019
Temperature: 7.2°C (45°F)
Dewpoint: 5.6°C (42°F) [RH = 90%]
Pressure (altimeter): 30.03 inches Hg (1017.0 mb)
Winds: from the NW (310 degrees) at 9 MPH (8 knots; 4.1 m/s)
Visibility: 10 or more miles (16+ km)
Ceiling: 1000 feet AGL
Clouds: overcast cloud deck at 1000 feet AGL
Weather: -RA  (light rain)

METAR text: KHSV 180601Z AUTO 32009KT 10SM -RA OVC009 07/06 A3000 RMK AO2 CIG 007V014 P0002 T00720061
Conditions at: KHSV (HUNTSVILLE , AL, US) observed 0601 UTC 18 February 2019
Temperature: 7.2°C (45°F)
Dewpoint: 6.1°C (43°F) [RH = 93%]
Pressure (altimeter): 30.00 inches Hg (1016.0 mb)
Winds: from the NW (320 degrees) at 10 MPH (9 knots; 4.6 m/s)
Visibility: 10 or more miles (16+ km)
Ceiling: 900 feet AGL
Clouds: overcast cloud deck at 900 feet AGL
Weather: -RA  (light rain)

METAR text: KHSV 180553Z 33009KT 10SM -RA OVC011 07/06 A3000 RMK AO2 SLP159 P0001 60054 T00720061 10117 20072 401720061 51019
Conditions at: KHSV (HUNTSVILLE , AL, US) observed 0553 UTC 18 February 2019
Temperature: 7.2°C (45°F)
Dewpoint: 6.1°C (43°F) [RH = 93%]
Pressure (altimeter): 30.00 inches Hg (1016.0 mb)
[Sea-level pressure: 1015.9 mb]
Winds: from the NNW (330 degrees) at 10 MPH (9 knots; 4.6 m/s)
Visibility: 10 or more miles (16+ km)
Ceiling: 1100 feet AGL
Clouds: overcast cloud deck at 1100 feet AGL
Weather: -RA  (light rain)

METAR text: KHSV 180540Z 31009KT 10SM -RA BKN013 BKN027 OVC110 07/06 A3001 RMK AO2 P0001 T00720061
Conditions at: KHSV (HUNTSVILLE , AL, US) observed 0540 UTC 18 February 2019
Temperature: 7.2°C (45°F)
Dewpoint: 6.1°C (43°F) [RH = 93%]
Pressure (altimeter): 30.01 inches Hg (1016.3 mb)
Winds: from the NW (310 degrees) at 10 MPH (9 knots; 4.6 m/s)
Visibility: 10 or more miles (16+ km)
Ceiling: 1300 feet AGL
Clouds: broken clouds at 1300 feet AGL
broken clouds at 2700 feet AGL
overcast cloud deck at 11000 feet AGL
Weather: -RA  (light rain)

METAR text: KHSV 180525Z 32008KT 10SM -RA SCT015 OVC110 07/06 A2999 RMK AO2 P0001 T00720061
Conditions at: KHSV (HUNTSVILLE , AL, US) observed 0525 UTC 18 February 2019
Temperature: 7.2°C (45°F)
Dewpoint: 6.1°C (43°F) [RH = 93%]
Pressure (altimeter): 29.99 inches Hg (1015.7 mb)
Winds: from the NW (320 degrees) at 9 MPH (8 knots; 4.1 m/s)
Visibility: 10 or more miles (16+ km)
Ceiling: 11000 feet AGL
Clouds: scattered clouds at 1500 feet AGL
overcast cloud deck at 11000 feet AGL
Weather: -RA  (light rain)

METAR text: KHSV 180453Z 29005KT 10SM -RA SCT016 BKN025 OVC090 08/07 A2999 RMK AO2 SLP155 P0011 T00780067
Conditions at: KHSV (HUNTSVILLE , AL, US) observed 0453 UTC 18 February 2019
Temperature: 7.8°C (46°F)
Dewpoint: 6.7°C (44°F) [RH = 93%]
Pressure (altimeter): 29.99 inches Hg (1015.7 mb)
[Sea-level pressure: 1015.5 mb]
Winds: from the WNW (290 degrees) at 6 MPH (5 knots; 2.6 m/s)
Visibility: 10 or more miles (16+ km)
Ceiling: 2500 feet AGL
Clouds: scattered clouds at 1600 feet AGL
broken clouds at 2500 feet AGL
overcast cloud deck at 9000 feet AGL
Weather: -RA  (light rain)

METAR text: KHSV 180353Z 29006KT 7SM -RA FEW015 SCT045 OVC070 08/07 A2997 RMK AO2 SLP147 P0005 T00830072
Conditions at: KHSV (HUNTSVILLE , AL, US) observed 0353 UTC 18 February 2019
Temperature: 8.3°C (47°F)
Dewpoint: 7.2°C (45°F) [RH = 93%]
Pressure (altimeter): 29.97 inches Hg (1015.0 mb)
[Sea-level pressure: 1014.7 mb]
Winds: from the WNW (290 degrees) at 7 MPH (6 knots; 3.1 m/s)
Visibility: 7 miles (11 km)
Ceiling: 7000 feet AGL
Clouds: few clouds at 1500 feet AGL
scattered clouds at 4500 feet AGL
overcast cloud deck at 7000 feet AGL
Weather: -RA  (light rain)

METAR text: KHSV 180340Z 28004KT 7SM -RA FEW009 BKN060 OVC075 09/08 A2997 RMK AO2 P0003 T00890078
Conditions at: KHSV (HUNTSVILLE , AL, US) observed 0340 UTC 18 February 2019
Temperature: 8.9°C (48°F)
Dewpoint: 7.8°C (46°F) [RH = 93%]
Pressure (altimeter): 29.97 inches Hg (1015.0 mb)
Winds: from the W (280 degrees) at 5 MPH (4 knots; 2.1 m/s)
Visibility: 7 miles (11 km)
Ceiling: 6000 feet AGL
Clouds: few clouds at 900 feet AGL
broken clouds at 6000 feet AGL
overcast cloud deck at 7500 feet AGL
Weather: -RA  (light rain)

METAR text: KHSV 180253Z 32006KT 5SM RA BR FEW010 BKN055 OVC075 09/08 A2995 RMK AO2 SLP139 P0009 60037 T00890078 51018
Conditions at: KHSV (HUNTSVILLE , AL, US) observed 0253 UTC 18 February 2019
Temperature: 8.9°C (48°F)
Dewpoint: 7.8°C (46°F) [RH = 93%]
Pressure (altimeter): 29.95 inches Hg (1014.3 mb)
[Sea-level pressure: 1013.9 mb]
Winds: from the NW (320 degrees) at 7 MPH (6 knots; 3.1 m/s)
Visibility: 5 miles ( 8 km)
Ceiling: 5500 feet AGL
Clouds: few clouds at 1000 feet AGL
broken clouds at 5500 feet AGL
overcast cloud deck at 7500 feet AGL
Weather: RA BR  (moderate rain, mist)

METAR text: KHSV 180206Z 32007KT 8SM -RA FEW009 SCT017 OVC060 09/08 A2994 RMK AO2 P0001 T00890083
Conditions at: KHSV (HUNTSVILLE , AL, US) observed 0206 UTC 18 February 2019
Temperature: 8.9°C (48°F)
Dewpoint: 8.3°C (47°F) [RH = 96%]
Pressure (altimeter): 29.94 inches Hg (1014.0 mb)
Winds: from the NW (320 degrees) at 8 MPH (7 knots; 3.6 m/s)
Visibility: 8 miles (13 km)
Ceiling: 6000 feet AGL
Clouds: few clouds at 900 feet AGL
scattered clouds at 1700 feet AGL
overcast cloud deck at 6000 feet AGL
Weather: -RA  (light rain)

METAR text: KHSV 180153Z 31007KT 4SM RA BR SCT009 BKN013 OVC065 09/08 A2992 RMK AO2 SLP131 P0011 T00940083
Conditions at: KHSV (HUNTSVILLE , AL, US) observed 0153 UTC 18 February 2019
Temperature: 9.4°C (49°F)
Dewpoint: 8.3°C (47°F) [RH = 93%]
Pressure (altimeter): 29.92 inches Hg (1013.3 mb)
[Sea-level pressure: 1013.1 mb]
Winds: from the NW (310 degrees) at 8 MPH (7 knots; 3.6 m/s)
Visibility: 4 miles ( 6 km)
Ceiling: 1300 feet AGL
Clouds: scattered clouds at 900 feet AGL
broken clouds at 1300 feet AGL
overcast cloud deck at 6500 feet AGL
Weather: RA BR  (moderate rain, mist)

METAR text: KHSV 180151Z 32007KT 4SM RA BR SCT007 BKN013 OVC040 09/08 A2992 RMK AO2 P0009
Conditions at: KHSV (HUNTSVILLE , AL, US) observed 0151 UTC 18 February 2019
Temperature: 9.0°C (48°F)
Dewpoint: 8.0°C (46°F) [RH = 93%]
Pressure (altimeter): 29.92 inches Hg (1013.3 mb)
Winds: from the NW (320 degrees) at 8 MPH (7 knots; 3.6 m/s)
Visibility: 4 miles ( 6 km)
Ceiling: 1300 feet AGL
Clouds: scattered clouds at 700 feet AGL
broken clouds at 1300 feet AGL
overcast cloud deck at 4000 feet AGL
Weather: RA BR  (moderate rain, mist)

METAR text: KHSV 180126Z 32010KT 3SM RA BR BKN007 BKN014 OVC070 11/09 A2991 RMK AO2 P0006 T01060094
Conditions at: KHSV (HUNTSVILLE , AL, US) observed 0126 UTC 18 February 2019
Temperature: 10.6°C (51°F)
Dewpoint: 9.4°C (49°F) [RH = 92%]
Pressure (altimeter): 29.91 inches Hg (1013.0 mb)
Winds: from the NW (320 degrees) at 12 MPH (10 knots; 5.1 m/s)
Visibility: 3 miles ( 5 km)
Ceiling: 700 feet AGL
Clouds: broken clouds at 700 feet AGL
broken clouds at 1400 feet AGL
overcast cloud deck at 7000 feet AGL
Weather: RA BR  (moderate rain, mist)

METAR text: KHSV 180108Z 29010KT 5SM RA BR SCT005 BKN016 OVC065 11/10 A2989 RMK AO2 P0002 T01060100
Conditions at: KHSV (HUNTSVILLE , AL, US) observed 0108 UTC 18 February 2019
Temperature: 10.6°C (51°F)
Dewpoint: 10.0°C (50°F) [RH = 96%]
Pressure (altimeter): 29.89 inches Hg (1012.3 mb)
Winds: from the WNW (290 degrees) at 12 MPH (10 knots; 5.1 m/s)
Visibility: 5 miles ( 8 km)
Ceiling: 1600 feet AGL
Clouds: scattered clouds at 500 feet AGL
broken clouds at 1600 feet AGL
overcast cloud deck at 6500 feet AGL
Weather: RA BR  (moderate rain, mist)

METAR text: KHSV 180053Z 29010KT 6SM RA BR BKN006 BKN025 OVC060 11/11 A2989 RMK AO2 SLP120 P0017 T01110106
Conditions at: KHSV (HUNTSVILLE , AL, US) observed 0053 UTC 18 February 2019
Temperature: 11.1°C (52°F)
Dewpoint: 10.6°C (51°F) [RH = 97%]
Pressure (altimeter): 29.89 inches Hg (1012.3 mb)
[Sea-level pressure: 1012.0 mb]
Winds: from the WNW (290 degrees) at 12 MPH (10 knots; 5.1 m/s)
Visibility: 6 miles (10 km)
Ceiling: 600 feet AGL
Clouds: broken clouds at 600 feet AGL
broken clouds at 2500 feet AGL
overcast cloud deck at 6000 feet AGL
Weather: RA BR  (moderate rain, mist)

METAR text: KHSV 180039Z 29005KT 6SM RA BR BKN006 BKN011 OVC060 11/11 A2987 RMK AO2 P0015 T01110106
Conditions at: KHSV (HUNTSVILLE , AL, US) observed 0039 UTC 18 February 2019
Temperature: 11.1°C (52°F)
Dewpoint: 10.6°C (51°F) [RH = 97%]
Pressure (altimeter): 29.87 inches Hg (1011.6 mb)
Winds: from the WNW (290 degrees) at 6 MPH (5 knots; 2.6 m/s)
Visibility: 6 miles (10 km)
Ceiling: 600 feet AGL
Clouds: broken clouds at 600 feet AGL
broken clouds at 1100 feet AGL
overcast cloud deck at 6000 feet AGL
Weather: RA BR  (moderate rain, mist)

METAR text: KHSV 180034Z 30007KT 6SM -RA BR SCT006 BKN036 OVC060 11/11 A2987 RMK AO2 P0011 T01110106
Conditions at: KHSV (HUNTSVILLE , AL, US) observed 0034 UTC 18 February 2019
Temperature: 11.1°C (52°F)
Dewpoint: 10.6°C (51°F) [RH = 97%]
Pressure (altimeter): 29.87 inches Hg (1011.6 mb)
Winds: from the WNW (300 degrees) at 8 MPH (7 knots; 3.6 m/s)
Visibility: 6 miles (10 km)
Ceiling: 3600 feet AGL
Clouds: scattered clouds at 600 feet AGL
broken clouds at 3600 feet AGL
overcast cloud deck at 6000 feet AGL
Weather: -RA BR  (light rain, mist)

METAR text: KHSV 172353Z 31007KT 10SM -RA BKN007 OVC060 12/11 A2983 RMK AO2 LTG DSNT SW SLP098 CB DSNT SW P0004 60032 T01170111 10172 20117 53023
Conditions at: KHSV (HUNTSVILLE , AL, US) observed 2353 UTC 17 February 2019
Temperature: 11.7°C (53°F)
Dewpoint: 11.1°C (52°F) [RH = 96%]
Pressure (altimeter): 29.83 inches Hg (1010.2 mb)
[Sea-level pressure: 1009.8 mb]
Winds: from the NW (310 degrees) at 8 MPH (7 knots; 3.6 m/s)
Visibility: 10 or more miles (16+ km)
Ceiling: 700 feet AGL
Clouds: broken clouds at 700 feet AGL
overcast cloud deck at 6000 feet AGL
Weather: -RA  (light rain)

METAR text: KHSV 172339Z 32005KT 10SM -RA SCT005 BKN008 OVC060 12/12 A2980 RMK AO2 P0004 T01220117
Conditions at: KHSV (HUNTSVILLE , AL, US) observed 2339 UTC 17 February 2019
Temperature: 12.2°C (54°F)
Dewpoint: 11.7°C (53°F) [RH = 97%]
Pressure (altimeter): 29.80 inches Hg (1009.2 mb)
Winds: from the NW (320 degrees) at 6 MPH (5 knots; 2.6 m/s)
Visibility: 10 or more miles (16+ km)
Ceiling: 800 feet AGL
Clouds: scattered clouds at 500 feet AGL
broken clouds at 800 feet AGL
overcast cloud deck at 6000 feet AGL
Weather: -RA  (light rain)

METAR text: KHSV 172337Z 33006KT 10SM -RA SCT008 BKN039 OVC060 12/12 A2979 RMK AO2 PRESFR P0004 T01220117
Conditions at: KHSV (HUNTSVILLE , AL, US) observed 2337 UTC 17 February 2019
Temperature: 12.2°C (54°F)
Dewpoint: 11.7°C (53°F) [RH = 97%]
Pressure (altimeter): 29.79 inches Hg (1008.9 mb)
Winds: from the NNW (330 degrees) at 7 MPH (6 knots; 3.1 m/s)
Visibility: 10 or more miles (16+ km)
Ceiling: 3900 feet AGL
Clouds: scattered clouds at 800 feet AGL
broken clouds at 3900 feet AGL
overcast cloud deck at 6000 feet AGL
Weather: -RA  (light rain)

METAR text: KHSV 172316Z 30011KT 3SM -RA BKN006 OVC050 13/12 A2982 RMK AO2 SFC VIS 8 P0000 T01280122
Conditions at: KHSV (HUNTSVILLE , AL, US) observed 2316 UTC 17 February 2019
Temperature: 12.8°C (55°F)
Dewpoint: 12.2°C (54°F) [RH = 96%]
Pressure (altimeter): 29.82 inches Hg (1009.9 mb)
Winds: from the WNW (300 degrees) at 13 MPH (11 knots; 5.7 m/s)
Visibility: 3 miles ( 5 km)
Ceiling: 600 feet AGL
Clouds: broken clouds at 600 feet AGL
overcast cloud deck at 5000 feet AGL
Weather: -RA  (light rain)

METAR text: KHSV 172302Z 29006KT 8SM -RA FEW034 OVC048 13/12 A2980 RMK AO2 P0000 T01280122
Conditions at: KHSV (HUNTSVILLE , AL, US) observed 2302 UTC 17 February 2019
Temperature: 12.8°C (55°F)
Dewpoint: 12.2°C (54°F) [RH = 96%]
Pressure (altimeter): 29.80 inches Hg (1009.2 mb)
Winds: from the WNW (290 degrees) at 7 MPH (6 knots; 3.1 m/s)
Visibility: 8 miles (13 km)
Ceiling: 4800 feet AGL
Clouds: few clouds at 3400 feet AGL
overcast cloud deck at 4800 feet AGL
Weather: -RA  (light rain)

METAR text: KHSV 172253Z 27003KT 2 1/2SM -RA FEW034 FEW041 OVC048 13/12 A2979 RMK AO2 SFC VIS 8 SLP086 P0015 T01280122
Conditions at: KHSV (HUNTSVILLE , AL, US) observed 2253 UTC 17 February 2019
Temperature: 12.8°C (55°F)
Dewpoint: 12.2°C (54°F) [RH = 96%]
Pressure (altimeter): 29.79 inches Hg (1008.9 mb)
[Sea-level pressure: 1008.6 mb]
Winds: from the W (270 degrees) at 3 MPH (3 knots; 1.5 m/s)
Visibility: 2.50 miles (4.02 km)
Ceiling: 4800 feet AGL
Clouds: few clouds at 3400 feet AGL
few clouds at 4100 feet AGL
overcast cloud deck at 4800 feet AGL
Weather: -RA  (light rain)

METAR text: KHSV 172234Z 31005KT 2SM +RA BR FEW008 BKN035 OVC043 13/12 A2980 RMK AO2 TWR VIS 2 1/2 P0010 T01280122
Conditions at: KHSV (HUNTSVILLE , AL, US) observed 2234 UTC 17 February 2019
Temperature: 12.8°C (55°F)
Dewpoint: 12.2°C (54°F) [RH = 96%]
Pressure (altimeter): 29.80 inches Hg (1009.2 mb)
Winds: from the NW (310 degrees) at 6 MPH (5 knots; 2.6 m/s)
Visibility: 2.00 miles (3.22 km)
Ceiling: 3500 feet AGL
Clouds: few clouds at 800 feet AGL
broken clouds at 3500 feet AGL
overcast cloud deck at 4300 feet AGL
Weather: +RA BR  (heavy rain, mist)

METAR text: KHSV 172230Z 31007KT 4SM RA BR SCT008 BKN029 OVC037 13/12 A2980 RMK AO2 P0008 T01280122
Conditions at: KHSV (HUNTSVILLE , AL, US) observed 2230 UTC 17 February 2019
Temperature: 12.8°C (55°F)
Dewpoint: 12.2°C (54°F) [RH = 96%]
Pressure (altimeter): 29.80 inches Hg (1009.2 mb)
Winds: from the NW (310 degrees) at 8 MPH (7 knots; 3.6 m/s)
Visibility: 4 miles ( 6 km)
Ceiling: 2900 feet AGL
Clouds: scattered clouds at 800 feet AGL
broken clouds at 2900 feet AGL
overcast cloud deck at 3700 feet AGL
Weather: RA BR  (moderate rain, mist)

METAR text: KHSV 172211Z 31013G21KT 5SM RA BR SCT004 OVC010 13/12 A2979 RMK AO2 CIG 006V012 P0006 T01330122
Conditions at: KHSV (HUNTSVILLE , AL, US) observed 2211 UTC 17 February 2019
Temperature: 13.3°C (56°F)
Dewpoint: 12.2°C (54°F) [RH = 93%]
Pressure (altimeter): 29.79 inches Hg (1008.9 mb)
Winds: from the NW (310 degrees) at 15 MPH (13 knots; 6.7 m/s)
gusting to 24 MPH (21 knots; 10.8 m/s)
Visibility: 5 miles ( 8 km)
Ceiling: 1000 feet AGL
Clouds: scattered clouds at 400 feet AGL
overcast cloud deck at 1000 feet AGL
Weather: RA BR  (moderate rain, mist)

METAR text: KHSV 172153Z 30011G18KT 1 1/2SM RA BR OVC004 16/16 A2977 RMK AO2 SLP077 P0011 T01610161
Conditions at: KHSV (HUNTSVILLE , AL, US) observed 2153 UTC 17 February 2019
Temperature: 16.1°C (61°F)
Dewpoint: 16.1°C (61°F) [RH = 100%]
Pressure (altimeter): 29.77 inches Hg (1008.2 mb)
[Sea-level pressure: 1007.7 mb]
Winds: from the WNW (300 degrees) at 13 MPH (11 knots; 5.7 m/s)
gusting to 21 MPH (18 knots; 9.3 m/s)
Visibility: 1.50 miles (2.41 km)
Ceiling: 400 feet AGL
Clouds: overcast cloud deck at 400 feet AGL
Weather: RA BR  (moderate rain, mist)

METAR text: KHSV 172111Z 18003KT 2SM RA BR OVC007 16/16 A2974 RMK AO2 P0003 T01610156
Conditions at: KHSV (HUNTSVILLE , AL, US) observed 2111 UTC 17 February 2019
Temperature: 16.1°C (61°F)
Dewpoint: 15.6°C (60°F) [RH = 97%]
Pressure (altimeter): 29.74 inches Hg (1007.2 mb)
Winds: from the S (180 degrees) at 3 MPH (3 knots; 1.5 m/s)
Visibility: 2.00 miles (3.22 km)
Ceiling: 700 feet AGL
Clouds: overcast cloud deck at 700 feet AGL
Weather: RA BR  (moderate rain, mist)

METAR text: KHSV 172053Z 19004KT 3SM RA BR OVC007 17/16 A2976 RMK AO2 RAB09E38B47 SLP074 P0002 60002 T01670156 55008
Conditions at: KHSV (HUNTSVILLE , AL, US) observed 2053 UTC 17 February 2019
Temperature: 16.7°C (62°F)
Dewpoint: 15.6°C (60°F) [RH = 93%]
Pressure (altimeter): 29.76 inches Hg (1007.9 mb)
[Sea-level pressure: 1007.4 mb]
Winds: from the S (190 degrees) at 5 MPH (4 knots; 2.1 m/s)
Visibility: 3 miles ( 5 km)
Ceiling: 700 feet AGL
Clouds: overcast cloud deck at 700 feet AGL
Weather: RA BR  (moderate rain, mist)

METAR text: KHSV 172040Z 17005KT 6SM BR OVC007 17/16 A2974 RMK AO2 RAB09E38 P0002 T01670156
Conditions at: KHSV (HUNTSVILLE , AL, US) observed 2040 UTC 17 February 2019
Temperature: 16.7°C (62°F)
Dewpoint: 15.6°C (60°F) [RH = 93%]
Pressure (altimeter): 29.74 inches Hg (1007.2 mb)
Winds: from the S (170 degrees) at 6 MPH (5 knots; 2.6 m/s)
Visibility: 6 miles (10 km)
Ceiling: 700 feet AGL
Clouds: overcast cloud deck at 700 feet AGL
Weather: BR  (mist)

METAR text: KHSV 171953Z 16006KT 5SM BR OVC009 17/16 A2976 RMK AO2 SLP074 T01670156
Conditions at: KHSV (HUNTSVILLE , AL, US) observed 1953 UTC 17 February 2019
Temperature: 16.7°C (62°F)
Dewpoint: 15.6°C (60°F) [RH = 93%]
Pressure (altimeter): 29.76 inches Hg (1007.9 mb)
[Sea-level pressure: 1007.4 mb]
Winds: from the SSE (160 degrees) at 7 MPH (6 knots; 3.1 m/s)
Visibility: 5 miles ( 8 km)
Ceiling: 900 feet AGL
Clouds: overcast cloud deck at 900 feet AGL
Weather: BR  (mist)

METAR text: KHSV 171950Z 18007KT 5SM BR OVC009 17/16 A2976 RMK AO2
Conditions at: KHSV (HUNTSVILLE , AL, US) observed 1950 UTC 17 February 2019
Temperature: 17.0°C (63°F)
Dewpoint: 16.0°C (61°F) [RH = 94%]
Pressure (altimeter): 29.76 inches Hg (1007.9 mb)
Winds: from the S (180 degrees) at 8 MPH (7 knots; 3.6 m/s)
Visibility: 5 miles ( 8 km)
Ceiling: 900 feet AGL
Clouds: overcast cloud deck at 900 feet AGL
Weather: BR  (mist)

METAR text: KHSV 171853Z 19007KT 7SM OVC010 17/16 A2978 RMK AO2 SLP083 T01670156
Conditions at: KHSV (HUNTSVILLE , AL, US) observed 1853 UTC 17 February 2019
Temperature: 16.7°C (62°F)
Dewpoint: 15.6°C (60°F) [RH = 93%]
Pressure (altimeter): 29.78 inches Hg (1008.5 mb)
[Sea-level pressure: 1008.3 mb]
Winds: from the S (190 degrees) at 8 MPH (7 knots; 3.6 m/s)
Visibility: 7 miles (11 km)
Ceiling: 1000 feet AGL
Clouds: overcast cloud deck at 1000 feet AGL
Weather: no significant weather observed at this time

METAR text: KHSV 171844Z 18010KT 7SM OVC010 17/16 A2978 RMK AO2 T01720156
Conditions at: KHSV (HUNTSVILLE , AL, US) observed 1844 UTC 17 February 2019
Temperature: 17.2°C (63°F)
Dewpoint: 15.6°C (60°F) [RH = 90%]
Pressure (altimeter): 29.78 inches Hg (1008.5 mb)
Winds: from the S (180 degrees) at 12 MPH (10 knots; 5.1 m/s)
Visibility: 7 miles (11 km)
Ceiling: 1000 feet AGL
Clouds: overcast cloud deck at 1000 feet AGL
Weather: no significant weather observed at this time

METAR text: KHSV 171753Z 19009KT 5SM BR OVC007 16/15 A2981 RMK AO2 SLP092 60005 T01610150 10161 20106 58001 $
Conditions at: KHSV (HUNTSVILLE , AL, US) observed 1753 UTC 17 February 2019
Temperature: 16.1°C (61°F)
Dewpoint: 15.0°C (59°F) [RH = 93%]
Pressure (altimeter): 29.81 inches Hg (1009.6 mb)
[Sea-level pressure: 1009.2 mb]
Winds: from the S (190 degrees) at 10 MPH (9 knots; 4.6 m/s)
Visibility: 5 miles ( 8 km)
Ceiling: 700 feet AGL
Clouds: overcast cloud deck at 700 feet AGL
Weather: BR  (mist)
SOME DATA ABOVE MAY BE INACCURATE!!!
"$" is an indication the sensor requires maintenance

METAR text: KHSV 171653Z 18009KT 5SM BR OVC006 16/14 A2982 RMK AO2 SLP097 T01560144 $
Conditions at: KHSV (HUNTSVILLE , AL, US) observed 1653 UTC 17 February 2019
Temperature: 15.6°C (60°F)
Dewpoint: 14.4°C (58°F) [RH = 93%]
Pressure (altimeter): 29.82 inches Hg (1009.9 mb)
[Sea-level pressure: 1009.7 mb]
Winds: from the S (180 degrees) at 10 MPH (9 knots; 4.6 m/s)
Visibility: 5 miles ( 8 km)
Ceiling: 600 feet AGL
Clouds: overcast cloud deck at 600 feet AGL
Weather: BR  (mist)
SOME DATA ABOVE MAY BE INACCURATE!!!
"$" is an indication the sensor requires maintenance

METAR text: KHSV 171626Z 18009KT 4SM BR OVC006 15/14 A2982 RMK AO2 T01500139 $
Conditions at: KHSV (HUNTSVILLE , AL, US) observed 1626 UTC 17 February 2019
Temperature: 15.0°C (59°F)
Dewpoint: 13.9°C (57°F) [RH = 93%]
Pressure (altimeter): 29.82 inches Hg (1009.9 mb)
Winds: from the S (180 degrees) at 10 MPH (9 knots; 4.6 m/s)
Visibility: 4 miles ( 6 km)
Ceiling: 600 feet AGL
Clouds: overcast cloud deck at 600 feet AGL
Weather: BR  (mist)
SOME DATA ABOVE MAY BE INACCURATE!!!
"$" is an indication the sensor requires maintenance

METAR text: KHSV 171553Z 17010KT 2 1/2SM BR OVC007 14/14 A2982 RMK AO2 SFC VIS 3 RAE34 SLP095 P0004 T01440139 $
Conditions at: KHSV (HUNTSVILLE , AL, US) observed 1553 UTC 17 February 2019
Temperature: 14.4°C (58°F)
Dewpoint: 13.9°C (57°F) [RH = 97%]
Pressure (altimeter): 29.82 inches Hg (1009.9 mb)
[Sea-level pressure: 1009.5 mb]
Winds: from the S (170 degrees) at 12 MPH (10 knots; 5.1 m/s)
Visibility: 2.50 miles (4.02 km)
Ceiling: 700 feet AGL
Clouds: overcast cloud deck at 700 feet AGL
Weather: BR  (mist)
SOME DATA ABOVE MAY BE INACCURATE!!!
"$" is an indication the sensor requires maintenance

METAR text: KHSV 171453Z 17009KT 2 1/2SM -RA BR OVC007 13/13 A2981 RMK AO2 RAB31 SLP094 P0001 60001 T01330128 53010 $
Conditions at: KHSV (HUNTSVILLE , AL, US) observed 1453 UTC 17 February 2019
Temperature: 13.3°C (56°F)
Dewpoint: 12.8°C (55°F) [RH = 97%]
Pressure (altimeter): 29.81 inches Hg (1009.6 mb)
[Sea-level pressure: 1009.4 mb]
Winds: from the S (170 degrees) at 10 MPH (9 knots; 4.6 m/s)
Visibility: 2.50 miles (4.02 km)
Ceiling: 700 feet AGL
Clouds: overcast cloud deck at 700 feet AGL
Weather: -RA BR  (light rain, mist)
SOME DATA ABOVE MAY BE INACCURATE!!!
"$" is an indication the sensor requires maintenance

METAR text: KHSV 171353Z 17009KT 7SM OVC007 13/12 A2978 RMK AO2 SLP084 T01280117 $
Conditions at: KHSV (HUNTSVILLE , AL, US) observed 1353 UTC 17 February 2019
Temperature: 12.8°C (55°F)
Dewpoint: 11.7°C (53°F) [RH = 93%]
Pressure (altimeter): 29.78 inches Hg (1008.5 mb)
[Sea-level pressure: 1008.4 mb]
Winds: from the S (170 degrees) at 10 MPH (9 knots; 4.6 m/s)
Visibility: 7 miles (11 km)
Ceiling: 700 feet AGL
Clouds: overcast cloud deck at 700 feet AGL
Weather:
SOME DATA ABOVE MAY BE INACCURATE!!!
"$" is an indication the sensor requires maintenance

METAR text: KHSV 171346Z 16012KT 7SM OVC007 12/12 A2977 RMK AO2 T01220117 $
Conditions at: KHSV (HUNTSVILLE , AL, US) observed 1346 UTC 17 February 2019
Temperature: 12.2°C (54°F)
Dewpoint: 11.7°C (53°F) [RH = 97%]
Pressure (altimeter): 29.77 inches Hg (1008.2 mb)
Winds: from the SSE (160 degrees) at 14 MPH (12 knots; 6.2 m/s)
Visibility: 7 miles (11 km)
Ceiling: 700 feet AGL
Clouds: overcast cloud deck at 700 feet AGL
Weather:
SOME DATA ABOVE MAY BE INACCURATE!!!
"$" is an indication the sensor requires maintenance

METAR text: KHSV 171304Z 16010KT 7SM OVC008 12/11 A2978 RMK AO2 CIG 007V012 T01170111 $
Conditions at: KHSV (HUNTSVILLE , AL, US) observed 1304 UTC 17 February 2019
Temperature: 11.7°C (53°F)
Dewpoint: 11.1°C (52°F) [RH = 96%]
Pressure (altimeter): 29.78 inches Hg (1008.5 mb)
Winds: from the SSE (160 degrees) at 12 MPH (10 knots; 5.1 m/s)
Visibility: 7 miles (11 km)
Ceiling: 800 feet AGL
Clouds: overcast cloud deck at 800 feet AGL
Weather:
SOME DATA ABOVE MAY BE INACCURATE!!!
"$" is an indication the sensor requires maintenance

METAR text: KHSV 171253Z 16009KT 7SM OVC010 12/11 A2978 RMK AO2 RAE05 CIG 008V012 SLP085 P0000 T01170106 $
Conditions at: KHSV (HUNTSVILLE , AL, US) observed 1253 UTC 17 February 2019
Temperature: 11.7°C (53°F)
Dewpoint: 10.6°C (51°F) [RH = 93%]
Pressure (altimeter): 29.78 inches Hg (1008.5 mb)
[Sea-level pressure: 1008.5 mb]
Winds: from the SSE (160 degrees) at 10 MPH (9 knots; 4.6 m/s)
Visibility: 7 miles (11 km)
Ceiling: 1000 feet AGL
Clouds: overcast cloud deck at 1000 feet AGL
Weather:
SOME DATA ABOVE MAY BE INACCURATE!!!
"$" is an indication the sensor requires maintenance

METAR text: KHSV 171153Z 14006KT 9SM -RA OVC012 11/10 A2978 RMK AO2 RAB27 SLP084 P0000 60001 70001 T01060100 10106 20061 53001 $
Conditions at: KHSV (HUNTSVILLE , AL, US) observed 1153 UTC 17 February 2019
Temperature: 10.6°C (51°F)
Dewpoint: 10.0°C (50°F) [RH = 96%]
Pressure (altimeter): 29.78 inches Hg (1008.5 mb)
[Sea-level pressure: 1008.4 mb]
Winds: from the SE (140 degrees) at 7 MPH (6 knots; 3.1 m/s)
Visibility: 9 miles (14 km)
Ceiling: 1200 feet AGL
Clouds: overcast cloud deck at 1200 feet AGL
Weather: -RA  (light rain)
SOME DATA ABOVE MAY BE INACCURATE!!!
"$" is an indication the sensor requires maintenance

METAR text: KHSV 171129Z AUTO 13003KT 10SM -RA OVC014 10/09 A2979 RMK AO2 RAB27 P0000 T01000094 $
Conditions at: KHSV (HUNTSVILLE , AL, US) observed 1129 UTC 17 February 2019
Temperature: 10.0°C (50°F)
Dewpoint: 9.4°C (49°F) [RH = 96%]
Pressure (altimeter): 29.79 inches Hg (1008.9 mb)
Winds: from the SE (130 degrees) at 3 MPH (3 knots; 1.5 m/s)
Visibility: 10 or more miles (16+ km)
Ceiling: 1400 feet AGL
Clouds: overcast cloud deck at 1400 feet AGL
Weather: -RA  (light rain)
SOME DATA ABOVE MAY BE INACCURATE!!!
"$" is an indication the sensor requires maintenance

METAR text: KHSV 171053Z AUTO 13007KT 10SM OVC017 09/09 A2978 RMK AO2 RAB07E47 SLP084 P0001 T00940089 $
Conditions at: KHSV (HUNTSVILLE , AL, US) observed 1053 UTC 17 February 2019
Temperature: 9.4°C (49°F)
Dewpoint: 8.9°C (48°F) [RH = 97%]
Pressure (altimeter): 29.78 inches Hg (1008.5 mb)
[Sea-level pressure: 1008.4 mb]
Winds: from the SE (130 degrees) at 8 MPH (7 knots; 3.6 m/s)
Visibility: 10 or more miles (16+ km)
Ceiling: 1700 feet AGL
Clouds: overcast cloud deck at 1700 feet AGL
Weather:
SOME DATA ABOVE MAY BE INACCURATE!!!
"$" is an indication the sensor requires maintenance

METAR text: KHSV 170953Z AUTO 14005KT 10SM OVC022 09/08 A2978 RMK AO2 RAB11E24 SLP084 P0000 T00890078 $
Conditions at: KHSV (HUNTSVILLE , AL, US) observed 0953 UTC 17 February 2019
Temperature: 8.9°C (48°F)
Dewpoint: 7.8°C (46°F) [RH = 93%]
Pressure (altimeter): 29.78 inches Hg (1008.5 mb)
[Sea-level pressure: 1008.4 mb]
Winds: from the SE (140 degrees) at 6 MPH (5 knots; 2.6 m/s)
Visibility: 10 or more miles (16+ km)
Ceiling: 2200 feet AGL
Clouds: overcast cloud deck at 2200 feet AGL
Weather:
SOME DATA ABOVE MAY BE INACCURATE!!!
"$" is an indication the sensor requires maintenance

METAR text: KHSV 170853Z AUTO 15007KT 10SM OVC017 08/07 A2978 RMK AO2 RAE25 SLP085 P0000 60000 T00780067 56014 $
Conditions at: KHSV (HUNTSVILLE , AL, US) observed 0853 UTC 17 February 2019
Temperature: 7.8°C (46°F)
Dewpoint: 6.7°C (44°F) [RH = 93%]
Pressure (altimeter): 29.78 inches Hg (1008.5 mb)
[Sea-level pressure: 1008.5 mb]
Winds: from the SSE (150 degrees) at 8 MPH (7 knots; 3.6 m/s)
Visibility: 10 or more miles (16+ km)
Ceiling: 1700 feet AGL
Clouds: overcast cloud deck at 1700 feet AGL
Weather:
SOME DATA ABOVE MAY BE INACCURATE!!!
"$" is an indication the sensor requires maintenance

METAR text: KHSV 170753Z AUTO 11003KT 10SM -RA OVC021 07/06 A2979 RMK AO2 SLP089 P0000 T00720061 $
Conditions at: KHSV (HUNTSVILLE , AL, US) observed 0753 UTC 17 February 2019
Temperature: 7.2°C (45°F)
Dewpoint: 6.1°C (43°F) [RH = 93%]
Pressure (altimeter): 29.79 inches Hg (1008.9 mb)
[Sea-level pressure: 1008.9 mb]
Winds: from the ESE (110 degrees) at 3 MPH (3 knots; 1.5 m/s)
Visibility: 10 or more miles (16+ km)
Ceiling: 2100 feet AGL
Clouds: overcast cloud deck at 2100 feet AGL
Weather: -RA  (light rain)
SOME DATA ABOVE MAY BE INACCURATE!!!
"$" is an indication the sensor requires maintenance

METAR text: KHSV 170708Z AUTO 00000KT 10SM -RA FEW009 BKN025 OVC110 06/05 A2981 RMK AO2 P0000 T00610050 $
Conditions at: KHSV (HUNTSVILLE , AL, US) observed 0708 UTC 17 February 2019
Temperature: 6.1°C (43°F)
Dewpoint: 5.0°C (41°F) [RH = 93%]
Pressure (altimeter): 29.81 inches Hg (1009.6 mb)
Winds: calm
Visibility: 10 or more miles (16+ km)
Ceiling: 2500 feet AGL
Clouds: few clouds at 900 feet AGL
broken clouds at 2500 feet AGL
overcast cloud deck at 11000 feet AGL
Weather: -RA  (light rain)
SOME DATA ABOVE MAY BE INACCURATE!!!
"$" is an indication the sensor requires maintenance

METAR text: KHSV 170653Z AUTO 12005KT 10SM -RA SCT010 SCT041 BKN075 06/05 A2981 RMK AO2 RAB25 SLP095 P0000 T00610050 $
Conditions at: KHSV (HUNTSVILLE , AL, US) observed 0653 UTC 17 February 2019
Temperature: 6.1°C (43°F)
Dewpoint: 5.0°C (41°F) [RH = 93%]
Pressure (altimeter): 29.81 inches Hg (1009.6 mb)
[Sea-level pressure: 1009.5 mb]
Winds: from the ESE (120 degrees) at 6 MPH (5 knots; 2.6 m/s)
Visibility: 10 or more miles (16+ km)
Ceiling: 7500 feet AGL
Clouds: scattered clouds at 1000 feet AGL
scattered clouds at 4100 feet AGL
broken clouds at 7500 feet AGL
Weather: -RA  (light rain)
SOME DATA ABOVE MAY BE INACCURATE!!!
"$" is an indication the sensor requires maintenance

METAR text: KHSV 170639Z AUTO 00000KT 10SM -RA BKN010 BKN050 OVC100 06/05 A2982 RMK AO2 RAB25 P0000 T00610050 $
Conditions at: KHSV (HUNTSVILLE , AL, US) observed 0639 UTC 17 February 2019
Temperature: 6.1°C (43°F)
Dewpoint: 5.0°C (41°F) [RH = 93%]
Pressure (altimeter): 29.82 inches Hg (1009.9 mb)
Winds: calm
Visibility: 10 or more miles (16+ km)
Ceiling: 1000 feet AGL
Clouds: broken clouds at 1000 feet AGL
broken clouds at 5000 feet AGL
overcast cloud deck at 10000 feet AGL
Weather: -RA  (light rain)
SOME DATA ABOVE MAY BE INACCURATE!!!
"$" is an indication the sensor requires maintenance

METAR text: KHSV 170553Z 00000KT 10SM OVC009 06/04 A2982 RMK AO2 RAB13E43 SLP099 P0000 60000 T00610044 10061 20056 401060044 55009 $
Conditions at: KHSV (HUNTSVILLE , AL, US) observed 0553 UTC 17 February 2019
Temperature: 6.1°C (43°F)
Dewpoint: 4.4°C (40°F) [RH = 89%]
Pressure (altimeter): 29.82 inches Hg (1009.9 mb)
[Sea-level pressure: 1009.9 mb]
Winds: calm
Visibility: 10 or more miles (16+ km)
Ceiling: 900 feet AGL
Clouds: overcast cloud deck at 900 feet AGL
Weather:
SOME DATA ABOVE MAY BE INACCURATE!!!
"$" is an indication the sensor requires maintenance

METAR text: KHSV 170537Z 12003KT 10SM -RA OVC007 06/04 A2982 RMK AO2 RAB13 CIG 007V010 P0000 T00610044 $
Conditions at: KHSV (HUNTSVILLE , AL, US) observed 0537 UTC 17 February 2019
Temperature: 6.1°C (43°F)
Dewpoint: 4.4°C (40°F) [RH = 89%]
Pressure (altimeter): 29.82 inches Hg (1009.9 mb)
Winds: from the ESE (120 degrees) at 3 MPH (3 knots; 1.5 m/s)
Visibility: 10 or more miles (16+ km)
Ceiling: 700 feet AGL
Clouds: overcast cloud deck at 700 feet AGL
Weather: -RA  (light rain)
SOME DATA ABOVE MAY BE INACCURATE!!!
"$" is an indication the sensor requires maintenance

METAR text: KHSV 170453Z 09007KT 10SM OVC009 06/04 A2981 RMK AO2 RAB43E51 SLP097 P0000 T00610039 $
Conditions at: KHSV (HUNTSVILLE , AL, US) observed 0453 UTC 17 February 2019
Temperature: 6.1°C (43°F)
Dewpoint: 3.9°C (39°F) [RH = 86%]
Pressure (altimeter): 29.81 inches Hg (1009.6 mb)
[Sea-level pressure: 1009.7 mb]
Winds: from the E (90 degrees) at 8 MPH (7 knots; 3.6 m/s)
Visibility: 10 or more miles (16+ km)
Ceiling: 900 feet AGL
Clouds: overcast cloud deck at 900 feet AGL
Weather:
SOME DATA ABOVE MAY BE INACCURATE!!!
"$" is an indication the sensor requires maintenance

METAR text: KHSV 170353Z 00000KT 10SM OVC011 06/04 A2985 RMK AO2 SLP110 T00610039 $
Conditions at: KHSV (HUNTSVILLE , AL, US) observed 0353 UTC 17 February 2019
Temperature: 6.1°C (43°F)
Dewpoint: 3.9°C (39°F) [RH = 86%]
Pressure (altimeter): 29.85 inches Hg (1010.9 mb)
[Sea-level pressure: 1011.0 mb]
Winds: calm
Visibility: 10 or more miles (16+ km)
Ceiling: 1100 feet AGL
Clouds: overcast cloud deck at 1100 feet AGL
Weather:
SOME DATA ABOVE MAY BE INACCURATE!!!
"$" is an indication the sensor requires maintenance

METAR text: KHSV 170253Z 10004KT 10SM OVC012 06/04 A2985 RMK AO2 SLP109 T00560039 58002 $
Conditions at: KHSV (HUNTSVILLE , AL, US) observed 0253 UTC 17 February 2019
Temperature: 5.6°C (42°F)
Dewpoint: 3.9°C (39°F) [RH = 89%]
Pressure (altimeter): 29.85 inches Hg (1010.9 mb)
[Sea-level pressure: 1010.9 mb]
Winds: from the E (100 degrees) at 5 MPH (4 knots; 2.1 m/s)
Visibility: 10 or more miles (16+ km)
Ceiling: 1200 feet AGL
Clouds: overcast cloud deck at 1200 feet AGL
Weather:
SOME DATA ABOVE MAY BE INACCURATE!!!
"$" is an indication the sensor requires maintenance

METAR text: KHSV 170153Z 01003KT 10SM OVC011 06/04 A2988 RMK AO2 SLP121 T00560039 $
Conditions at: KHSV (HUNTSVILLE , AL, US) observed 0153 UTC 17 February 2019
Temperature: 5.6°C (42°F)
Dewpoint: 3.9°C (39°F) [RH = 89%]
Pressure (altimeter): 29.88 inches Hg (1011.9 mb)
[Sea-level pressure: 1012.1 mb]
Winds: from the N (10 degrees) at 3 MPH (3 knots; 1.5 m/s)
Visibility: 10 or more miles (16+ km)
Ceiling: 1100 feet AGL
Clouds: overcast cloud deck at 1100 feet AGL
Weather:
SOME DATA ABOVE MAY BE INACCURATE!!!
"$" is an indication the sensor requires maintenance

METAR text: KHSV 170053Z 34003KT 10SM OVC011 06/03 A2989 RMK AO2 SLP123 T00560033 $
Conditions at: KHSV (HUNTSVILLE , AL, US) observed 0053 UTC 17 February 2019
Temperature: 5.6°C (42°F)
Dewpoint: 3.3°C (38°F) [RH = 85%]
Pressure (altimeter): 29.89 inches Hg (1012.3 mb)
[Sea-level pressure: 1012.3 mb]
Winds: from the NNW (340 degrees) at 3 MPH (3 knots; 1.5 m/s)
Visibility: 10 or more miles (16+ km)
Ceiling: 1100 feet AGL
Clouds: overcast cloud deck at 1100 feet AGL
Weather:
SOME DATA ABOVE MAY BE INACCURATE!!!
"$" is an indication the sensor requires maintenance

METAR text: KHSV 170001Z 04005KT 10SM OVC010 06/03 A2985 RMK AO2 T00560033 $
Conditions at: KHSV (HUNTSVILLE , AL, US) observed 0001 UTC 17 February 2019
Temperature: 5.6°C (42°F)
Dewpoint: 3.3°C (38°F) [RH = 85%]
Pressure (altimeter): 29.85 inches Hg (1010.9 mb)
Winds: from the NE (40 degrees) at 6 MPH (5 knots; 2.6 m/s)
Visibility: 10 or more miles (16+ km)
Ceiling: 1000 feet AGL
Clouds: overcast cloud deck at 1000 feet AGL
Weather:
SOME DATA ABOVE MAY BE INACCURATE!!!
"$" is an indication the sensor requires maintenance

METAR text: KHSV 162353Z 03004KT 10SM OVC009 06/03 A2986 RMK AO2 SLP112 T00560033 10056 20050 58004 $
Conditions at: KHSV (HUNTSVILLE , AL, US) observed 2353 UTC 16 February 2019
Temperature: 5.6°C (42°F)
Dewpoint: 3.3°C (38°F) [RH = 85%]
Pressure (altimeter): 29.86 inches Hg (1011.3 mb)
[Sea-level pressure: 1011.2 mb]
Winds: from the NNE (30 degrees) at 5 MPH (4 knots; 2.1 m/s)
Visibility: 10 or more miles (16+ km)
Ceiling: 900 feet AGL
Clouds: overcast cloud deck at 900 feet AGL
Weather:
SOME DATA ABOVE MAY BE INACCURATE!!!
"$" is an indication the sensor requires maintenance

METAR text: KHSV 162319Z 00000KT 10SM OVC009 06/03 A2987 RMK AO2 T00560033 $
Conditions at: KHSV (HUNTSVILLE , AL, US) observed 2319 UTC 16 February 2019
Temperature: 5.6°C (42°F)
Dewpoint: 3.3°C (38°F) [RH = 85%]
Pressure (altimeter): 29.87 inches Hg (1011.6 mb)
Winds: calm
Visibility: 10 or more miles (16+ km)
Ceiling: 900 feet AGL
Clouds: overcast cloud deck at 900 feet AGL
Weather:
SOME DATA ABOVE MAY BE INACCURATE!!!
"$" is an indication the sensor requires maintenance

METAR text: KHSV 162253Z 36006KT 10SM OVC010 06/03 A2987 RMK AO2 SLP114 T00560033 $
Conditions at: KHSV (HUNTSVILLE , AL, US) observed 2253 UTC 16 February 2019
Temperature: 5.6°C (42°F)
Dewpoint: 3.3°C (38°F) [RH = 85%]
Pressure (altimeter): 29.87 inches Hg (1011.6 mb)
[Sea-level pressure: 1011.4 mb]
Winds: from the N (360 degrees) at 7 MPH (6 knots; 3.1 m/s)
Visibility: 10 or more miles (16+ km)
Ceiling: 1000 feet AGL
Clouds: overcast cloud deck at 1000 feet AGL
Weather:
SOME DATA ABOVE MAY BE INACCURATE!!!
"$" is an indication the sensor requires maintenance

METAR text: KHSV 162153Z 01006KT 10SM OVC011 06/03 A2987 RMK AO2 SLP115 T00560033 $
Conditions at: KHSV (HUNTSVILLE , AL, US) observed 2153 UTC 16 February 2019
Temperature: 5.6°C (42°F)
Dewpoint: 3.3°C (38°F) [RH = 85%]
Pressure (altimeter): 29.87 inches Hg (1011.6 mb)
[Sea-level pressure: 1011.5 mb]
Winds: from the N (10 degrees) at 7 MPH (6 knots; 3.1 m/s)
Visibility: 10 or more miles (16+ km)
Ceiling: 1100 feet AGL
Clouds: overcast cloud deck at 1100 feet AGL
Weather:
SOME DATA ABOVE MAY BE INACCURATE!!!
"$" is an indication the sensor requires maintenance

Forecast for: KHSV (HUNTSVILLE , AL, US)
Text: KHSV 180520Z 1806/1906 32009KT P6SM VCSH SCT008 OVC014
Forecast period: 0600 to 0800 UTC 18 February 2019
Forecast type: FROM: standard forecast or significant change
Winds: from the NW (320 degrees) at 10 MPH (9 knots; 4.6 m/s)
Visibility: 6 or more miles 10+ km)
Ceiling: 1400 feet AGL
Clouds: scattered clouds at 800 feet AGL
overcast cloud deck at 1400 feet AGL
Weather: VCSH  (showers in vicinity)
Text: FM180800 33007KT P6SM OVC020
Forecast period: 0800 to 1400 UTC 18 February 2019
Forecast type: FROM: standard forecast or significant change
Winds: from the NNW (330 degrees) at 8 MPH (7 knots; 3.6 m/s)
Visibility: 6 or more miles 10+ km)
Ceiling: 2000 feet AGL
Clouds: overcast cloud deck at 2000 feet AGL
Weather: no significant weather forecast for this period
Text: FM181400 36010G15KT P6SM SCT030 BKN200
Forecast period: 1400 to 2100 UTC 18 February 2019
Forecast type: FROM: standard forecast or significant change
Winds: from the N (360 degrees) at 12 MPH (10 knots; 5.1 m/s)
gusting to 17 MPH (15 knots; 7.7 m/s)
Visibility: 6 or more miles 10+ km)
Ceiling: 20000 feet AGL
Clouds: scattered clouds at 3000 feet AGL
broken clouds at 20000 feet AGL
Weather: no significant weather forecast for this period
Text: FM182100 03010KT P6SM BKN180
Forecast period: 2100 UTC 18 February 2019 to 0600 UTC 19 February 2019
Forecast type: FROM: standard forecast or significant change
Winds: from the NNE (30 degrees) at 12 MPH (10 knots; 5.1 m/s)
Visibility: 6 or more miles 10+ km)
Ceiling: 18000 feet AGL
Clouds: broken clouds at 18000 feet AGL
Weather: no significant weather forecast for this period